createdAt,value
2022-10-13T00:00:49.407Z,100.00
2022-10-13T00:03:16.840Z,100.00
2022-10-13T00:05:46.069Z,100.00
2022-10-13T00:08:14.810Z,100.00
2022-10-13T00:10:41.553Z,100.00
2022-10-13T00:13:08.911Z,100.00
2022-10-13T00:15:44.194Z,100.00
2022-10-13T00:18:11.211Z,100.00
2022-10-13T00:20:46.043Z,100.00
2022-10-13T00:23:12.944Z,100.00
2022-10-13T00:25:44.468Z,100.00
2022-10-13T00:28:11.484Z,100.00
2022-10-13T00:30:38.997Z,100.00
2022-10-13T00:33:05.815Z,100.00
2022-10-13T00:35:33.020Z,100.00
2022-10-13T00:37:59.552Z,100.00
2022-10-13T00:40:26.044Z,100.00
2022-10-13T00:42:52.593Z,100.00
2022-10-13T00:45:29.170Z,100.00
2022-10-13T00:47:58.898Z,100.00
2022-10-13T00:50:32.805Z,100.00
2022-10-13T00:53:01.585Z,100.00
2022-10-13T00:55:31.823Z,100.00
2022-10-13T00:58:04.931Z,100.00
2022-10-13T01:00:34.707Z,100.00
2022-10-13T01:03:03.102Z,100.00
2022-10-13T01:05:30.889Z,100.00
2022-10-13T01:07:58.110Z,100.00
2022-10-13T01:10:49.954Z,100.00
2022-10-13T01:13:28.168Z,100.00
2022-10-13T01:16:15.394Z,100.00
2022-10-13T01:19:09.482Z,100.00
2022-10-13T01:21:44.871Z,100.00
2022-10-13T01:24:20.795Z,100.00
2022-10-13T01:27:08.942Z,100.00
2022-10-13T01:30:02.720Z,100.00
2022-10-13T01:32:41.441Z,100.00
2022-10-13T01:35:32.454Z,100.00
2022-10-13T01:38:09.240Z,100.00
2022-10-13T01:40:44.753Z,100.00
2022-10-13T01:43:28.722Z,100.00
2022-10-13T01:46:20.364Z,100.00
2022-10-13T01:48:46.834Z,100.00
2022-10-13T01:51:18.166Z,100.00
2022-10-13T01:53:46.977Z,100.00
2022-10-13T01:56:13.996Z,100.00
2022-10-13T01:58:40.942Z,100.00
2022-10-13T02:01:15.217Z,100.00
2022-10-13T02:03:47.738Z,100.00
2022-10-13T02:06:24.767Z,100.00
2022-10-13T02:08:57.908Z,100.00
2022-10-13T02:11:25.306Z,100.00
2022-10-13T02:14:07.516Z,100.00
2022-10-13T02:16:38.372Z,100.00
2022-10-13T02:19:06.604Z,100.00
2022-10-13T02:21:33.960Z,100.00
2022-10-13T02:24:00.763Z,100.00
2022-10-13T02:26:27.566Z,100.00
2022-10-13T02:28:54.092Z,100.00
2022-10-13T02:31:20.569Z,100.00
2022-10-13T02:33:47.068Z,100.00
2022-10-13T02:36:13.509Z,100.00
2022-10-13T02:38:40.015Z,100.00
2022-10-13T02:41:06.651Z,100.00
2022-10-13T02:43:33.540Z,100.00
2022-10-13T02:46:00.025Z,100.00
2022-10-13T02:48:26.520Z,100.00
2022-10-13T02:50:53.119Z,100.00
2022-10-13T02:53:19.591Z,100.00
2022-10-13T02:55:46.138Z,100.00
2022-10-13T02:58:12.784Z,100.00
2022-10-13T03:00:39.305Z,100.00
2022-10-13T03:03:06.782Z,100.00
2022-10-13T03:05:33.529Z,100.00
2022-10-13T03:07:59.992Z,100.00
2022-10-13T03:10:26.506Z,100.00
2022-10-13T03:12:55.014Z,100.00
2022-10-13T03:15:21.499Z,100.00
2022-10-13T03:17:48.478Z,100.00
2022-10-13T03:20:15.330Z,100.00
2022-10-13T03:22:44.859Z,100.00
2022-10-13T03:25:14.032Z,100.00
2022-10-13T03:27:40.574Z,100.00
2022-10-13T03:30:07.930Z,100.00
2022-10-13T03:32:34.363Z,100.00
2022-10-13T03:35:00.906Z,100.00
2022-10-13T03:37:29.989Z,100.00
2022-10-13T03:39:56.649Z,100.00
2022-10-13T03:42:23.516Z,100.00
2022-10-13T03:44:55.245Z,100.00
2022-10-13T03:47:23.127Z,100.00
2022-10-13T03:49:49.668Z,100.00
2022-10-13T03:52:16.126Z,100.00
2022-10-13T03:54:42.732Z,100.00
2022-10-13T03:57:09.296Z,100.00
2022-10-13T03:59:36.953Z,100.00
2022-10-13T04:02:04.132Z,100.00
2022-10-13T04:04:30.767Z,100.00
2022-10-13T04:06:57.314Z,100.00
2022-10-13T04:09:23.850Z,100.00
2022-10-13T04:11:51.621Z,100.00
2022-10-13T04:14:19.181Z,100.00
2022-10-13T04:16:46.954Z,100.00
2022-10-13T04:19:15.081Z,100.00
2022-10-13T04:21:42.811Z,100.00
2022-10-13T04:24:13.300Z,100.00
2022-10-13T04:26:40.494Z,100.00
2022-10-13T04:29:09.418Z,100.00
2022-10-13T04:31:37.173Z,100.00
2022-10-13T04:34:04.312Z,100.00
2022-10-13T04:36:30.742Z,100.00
2022-10-13T04:38:57.500Z,100.00
2022-10-13T04:41:24.100Z,100.00
2022-10-13T04:43:51.729Z,100.00
2022-10-13T04:46:21.644Z,100.00
2022-10-13T04:48:48.891Z,100.00
2022-10-13T04:51:18.426Z,100.00
2022-10-13T04:53:45.245Z,100.00
2022-10-13T04:56:14.175Z,100.00
2022-10-13T04:58:45.929Z,100.00
2022-10-13T05:01:21.194Z,100.00
2022-10-13T05:04:01.674Z,100.00
2022-10-13T05:06:34.175Z,100.00
2022-10-13T05:09:01.193Z,100.00
2022-10-13T05:11:29.053Z,100.00
2022-10-13T05:13:56.749Z,100.00
2022-10-13T05:16:24.056Z,100.00
2022-10-13T05:18:54.695Z,100.00
2022-10-13T05:21:24.368Z,100.00
2022-10-13T05:23:51.769Z,100.00
2022-10-13T05:26:18.622Z,100.00
2022-10-13T05:28:45.315Z,100.00
2022-10-13T05:31:17.871Z,100.00
2022-10-13T05:33:45.162Z,100.00
2022-10-13T05:36:18.226Z,100.00
2022-10-13T05:38:45.247Z,100.00
2022-10-13T05:41:14.346Z,100.00
2022-10-13T05:43:42.449Z,100.00
2022-10-13T05:46:09.173Z,100.00
2022-10-13T05:48:36.674Z,100.00
2022-10-13T05:51:25.841Z,100.00
2022-10-13T05:54:04.526Z,100.00
2022-10-13T05:56:36.109Z,100.00
2022-10-13T05:59:05.820Z,100.00
2022-10-13T06:01:36.733Z,100.00
2022-10-13T06:04:08.508Z,100.00
2022-10-13T06:06:35.672Z,100.00
2022-10-13T06:09:02.346Z,100.00
2022-10-13T06:11:28.942Z,100.00
2022-10-13T06:13:55.379Z,100.00
2022-10-13T06:16:21.972Z,100.00
2022-10-13T06:18:48.769Z,100.00
2022-10-13T06:21:15.226Z,100.00
2022-10-13T06:23:41.818Z,100.00
2022-10-13T06:26:08.597Z,100.00
2022-10-13T06:28:35.478Z,100.00
2022-10-13T06:31:05.462Z,100.00
2022-10-13T06:33:32.755Z,100.00
2022-10-13T06:36:06.989Z,100.00
2022-10-13T06:38:34.003Z,100.00
2022-10-13T06:41:04.647Z,100.00
2022-10-13T06:43:39.727Z,100.00
2022-10-13T06:46:07.657Z,100.00
2022-10-13T06:48:34.506Z,100.00
2022-10-13T06:51:10.685Z,100.00
2022-10-13T06:53:37.932Z,100.00
2022-10-13T06:56:06.840Z,100.00
2022-10-13T06:58:35.231Z,100.00
2022-10-13T07:01:02.320Z,100.00
2022-10-13T07:03:28.938Z,100.00
2022-10-13T07:06:00.671Z,100.00
2022-10-13T07:08:27.212Z,100.00
2022-10-13T07:10:53.637Z,100.00
2022-10-13T07:15:51.463Z,100.00
2022-10-13T07:18:17.978Z,100.00
2022-10-13T07:20:44.415Z,100.00
2022-10-13T07:23:10.958Z,100.00
2022-10-13T07:25:37.833Z,100.00
2022-10-13T07:28:04.341Z,100.00
2022-10-13T07:30:31.047Z,100.00
2022-10-13T07:32:57.601Z,100.00
2022-10-13T07:35:28.236Z,100.00
2022-10-13T07:37:57.167Z,100.00
2022-10-13T07:40:23.934Z,100.00
2022-10-13T07:42:51.058Z,100.00
2022-10-13T07:45:17.603Z,100.00
2022-10-13T07:47:44.142Z,100.00
2022-10-13T07:50:10.580Z,100.00
2022-10-13T07:52:37.252Z,100.00
2022-10-13T07:55:04.537Z,100.00
2022-10-13T07:57:31.226Z,100.00
2022-10-13T07:59:57.764Z,100.00
2022-10-13T08:02:24.304Z,100.00
2022-10-13T08:04:50.847Z,100.00
2022-10-13T08:07:17.806Z,100.00
2022-10-13T08:09:45.863Z,100.00
2022-10-13T08:12:12.330Z,100.00
2022-10-13T08:14:38.972Z,100.00
2022-10-13T08:17:05.606Z,100.00
2022-10-13T08:19:32.150Z,100.00
2022-10-13T08:21:59.961Z,100.00
2022-10-13T08:24:27.389Z,100.00
2022-10-13T08:26:54.023Z,100.00
2022-10-13T08:29:22.423Z,100.00
2022-10-13T08:31:52.609Z,100.00
2022-10-13T08:34:19.952Z,100.00
2022-10-13T08:36:46.435Z,100.00
2022-10-13T08:39:13.281Z,100.00
2022-10-13T08:41:42.899Z,100.00
2022-10-13T08:45:06.293Z,100.00
2022-10-13T08:47:36.042Z,100.00
2022-10-13T08:50:10.645Z,100.00
2022-10-13T08:52:55.108Z,100.00
2022-10-13T08:55:28.277Z,100.00
2022-10-13T08:57:54.818Z,100.00
2022-10-13T09:00:21.364Z,99.76
2022-10-13T09:02:49.179Z,100.00
2022-10-13T09:05:47.007Z,99.90
2022-10-13T09:08:19.623Z,95.60
2022-10-13T09:10:52.360Z,97.04
2022-10-13T09:13:19.884Z,96.78
2022-10-13T09:15:49.161Z,95.22
2022-10-13T09:18:15.979Z,95.27
2022-10-13T09:20:42.824Z,95.36
2022-10-13T09:23:23.019Z,95.39
2022-10-13T09:25:51.784Z,93.35
2022-10-13T09:28:28.519Z,94.34
2022-10-13T09:31:26.330Z,92.40
2022-10-13T09:34:20.713Z,91.65
2022-10-13T09:37:05.704Z,90.60
2022-10-13T09:39:33.883Z,86.61
2022-10-13T09:42:20.911Z,90.39
2022-10-13T09:44:56.755Z,90.04
2022-10-13T09:47:23.444Z,87.61
2022-10-13T09:50:15.361Z,84.13
2022-10-13T09:52:42.959Z,85.69
2022-10-13T09:55:32.671Z,84.93
2022-10-13T09:58:24.106Z,85.52
2022-10-13T10:00:52.494Z,83.74
2022-10-13T10:03:27.675Z,83.13
2022-10-13T10:05:56.986Z,84.20
2022-10-13T10:09:02.124Z,84.23
2022-10-13T10:11:35.119Z,82.84
2022-10-13T10:14:27.944Z,81.55
2022-10-13T10:17:17.047Z,82.95
2022-10-13T10:19:58.627Z,79.66
2022-10-13T10:22:30.919Z,81.87
2022-10-13T10:25:33.956Z,82.01
2022-10-13T10:28:34.328Z,81.59
2022-10-13T10:31:25.701Z,80.34
2022-10-13T10:34:20.033Z,80.75
2022-10-13T10:36:57.397Z,79.62
2022-10-13T10:39:32.116Z,78.96
2022-10-13T10:42:20.065Z,78.86
2022-10-13T10:44:50.628Z,78.44
2022-10-13T10:47:27.044Z,77.83
2022-10-13T10:50:00.149Z,77.56
2022-10-13T10:52:42.592Z,77.65
2022-10-13T10:55:23.066Z,77.23
2022-10-13T10:58:10.821Z,76.37
2022-10-13T11:00:45.608Z,76.68
2022-10-13T11:03:33.680Z,76.66
2022-10-13T11:06:02.987Z,75.09
2022-10-13T11:08:45.190Z,74.99
2022-10-13T11:11:24.870Z,74.56
2022-10-13T11:14:05.796Z,75.05
2022-10-13T11:16:35.044Z,73.28
2022-10-13T11:19:26.062Z,70.11
2022-10-13T11:21:52.493Z,71.98
2022-10-13T11:24:34.202Z,71.24
2022-10-13T11:27:16.092Z,72.71
2022-10-13T11:29:45.598Z,70.07
2022-10-13T11:32:27.424Z,71.14
2022-10-13T11:35:00.589Z,71.38
2022-10-13T11:38:06.891Z,70.51
2022-10-13T11:41:11.801Z,71.43
2022-10-13T11:44:00.361Z,70.81
2022-10-13T11:46:38.365Z,70.16
2022-10-13T11:49:37.883Z,70.11
2022-10-13T11:52:56.462Z,69.69
2022-10-13T11:55:38.984Z,68.80
2022-10-13T11:58:14.348Z,68.59
2022-10-13T12:00:54.592Z,66.65
2022-10-13T12:03:27.063Z,67.58
2022-10-13T12:05:56.578Z,64.95
2022-10-13T12:08:24.141Z,66.00
2022-10-13T12:10:54.864Z,65.91
2022-10-13T12:13:28.529Z,64.42
2022-10-13T12:16:03.660Z,64.57
2022-10-13T12:18:35.997Z,64.04
2022-10-13T12:21:11.533Z,62.83
2022-10-13T12:23:38.394Z,64.03
2022-10-13T12:26:05.654Z,63.56
2022-10-13T12:29:00.957Z,63.28
2022-10-13T12:31:40.846Z,63.43
2022-10-13T12:34:25.310Z,63.91
2022-10-13T12:37:00.592Z,63.81
2022-10-13T12:39:29.325Z,63.40
2022-10-13T12:41:57.377Z,62.96
2022-10-13T12:44:27.112Z,61.94
2022-10-13T12:46:56.420Z,61.08
2022-10-13T12:49:25.967Z,61.35
2022-10-13T12:51:58.112Z,61.41
2022-10-13T12:54:29.156Z,61.73
2022-10-13T12:56:59.188Z,61.84
2022-10-13T12:59:28.073Z,62.11
2022-10-13T13:01:58.349Z,61.44
2022-10-13T13:04:39.788Z,61.05
2022-10-13T13:07:22.591Z,61.06
2022-10-13T13:10:07.439Z,60.88
2022-10-13T13:12:36.078Z,58.23
2022-10-13T13:15:32.090Z,56.66
2022-10-13T13:18:29.458Z,57.49
2022-10-13T13:20:56.730Z,58.45
2022-10-13T13:23:23.784Z,59.04
2022-10-13T13:26:01.124Z,58.64
2022-10-13T13:28:32.494Z,56.57
2022-10-13T13:31:00.219Z,57.05
2022-10-13T13:33:26.744Z,58.13
2022-10-13T13:35:54.106Z,58.41
2022-10-13T13:38:20.646Z,57.91
2022-10-13T13:40:47.294Z,57.56
2022-10-13T13:43:13.766Z,57.40
2022-10-13T13:45:40.476Z,57.02
2022-10-13T13:48:07.215Z,56.93
2022-10-13T13:50:36.223Z,57.05
2022-10-13T13:53:03.365Z,57.03
2022-10-13T13:55:30.192Z,57.21
2022-10-13T13:57:57.211Z,56.73
2022-10-13T14:00:23.805Z,56.87
2022-10-13T14:02:50.553Z,57.44
2022-10-13T14:05:17.191Z,57.43
2022-10-13T14:07:44.245Z,56.06
2022-10-13T14:10:11.295Z,56.54
2022-10-13T14:12:38.347Z,56.41
2022-10-13T14:15:05.499Z,55.35
2022-10-13T14:17:31.974Z,55.59
2022-10-13T14:19:58.485Z,56.26
2022-10-13T14:22:25.323Z,55.25
2022-10-13T14:24:52.108Z,54.25
2022-10-13T14:27:18.628Z,54.10
2022-10-13T14:29:45.158Z,53.98
2022-10-13T14:32:12.016Z,53.37
2022-10-13T14:34:38.429Z,53.03
2022-10-13T14:37:05.130Z,55.13
2022-10-13T14:39:31.623Z,55.71
2022-10-13T14:41:58.078Z,55.58
2022-10-13T14:44:25.390Z,56.70
2022-10-13T14:46:51.831Z,56.60
2022-10-13T14:49:18.267Z,56.77
2022-10-13T14:51:44.733Z,56.86
2022-10-13T14:54:11.273Z,56.46
2022-10-13T14:56:37.925Z,56.61
2022-10-13T14:59:06.812Z,57.12
2022-10-13T15:01:34.279Z,57.47
2022-10-13T15:04:01.718Z,57.55
2022-10-13T15:06:28.674Z,57.61
2022-10-13T15:08:55.793Z,57.59
2022-10-13T15:11:22.795Z,57.76
2022-10-13T15:13:49.313Z,58.14
2022-10-13T15:16:21.595Z,58.51
2022-10-13T15:18:48.315Z,58.87
2022-10-13T15:21:15.954Z,59.21
2022-10-13T15:23:43.374Z,59.70
2022-10-13T15:26:11.950Z,59.91
2022-10-13T15:28:42.068Z,61.33
2022-10-13T15:31:08.739Z,61.00
2022-10-13T15:33:35.172Z,61.61
2022-10-13T15:36:01.906Z,62.23
2022-10-13T15:38:28.547Z,62.50
2022-10-13T15:41:02.858Z,63.03
2022-10-13T15:43:29.693Z,62.66
2022-10-13T15:46:00.664Z,62.89
2022-10-13T15:48:27.344Z,62.99
2022-10-13T15:50:53.853Z,63.22
2022-10-13T15:53:20.498Z,63.53
2022-10-13T15:55:47.747Z,63.38
2022-10-13T15:58:14.382Z,63.44
2022-10-13T16:00:41.562Z,63.61
2022-10-13T16:03:13.814Z,63.80
2022-10-13T16:05:42.440Z,64.27
2022-10-13T16:08:09.166Z,64.27
2022-10-13T16:10:39.000Z,64.39
2022-10-13T16:13:05.604Z,64.61
2022-10-13T16:15:32.141Z,64.77
2022-10-13T16:17:58.597Z,65.30
2022-10-13T16:20:25.168Z,65.28
2022-10-13T16:22:53.804Z,65.39
2022-10-13T16:25:20.348Z,66.50
2022-10-13T16:27:46.859Z,66.36
2022-10-13T16:30:13.312Z,66.86
2022-10-13T16:32:40.270Z,66.90
2022-10-13T16:35:07.728Z,67.51
2022-10-13T16:37:34.477Z,67.55
2022-10-13T16:40:00.988Z,67.81
2022-10-13T16:42:27.549Z,67.98
2022-10-13T16:44:54.091Z,68.27
2022-10-13T16:47:20.769Z,68.47
2022-10-13T16:49:47.581Z,68.85
2022-10-13T16:52:14.084Z,69.40
2022-10-13T16:54:40.555Z,69.69
2022-10-13T16:57:07.195Z,70.11
2022-10-13T16:59:33.734Z,70.41
2022-10-13T17:02:00.127Z,70.86
2022-10-13T17:04:27.023Z,71.38
2022-10-13T17:06:53.557Z,71.81
2022-10-13T17:09:19.965Z,72.99
2022-10-13T17:11:46.642Z,73.27
2022-10-13T17:14:13.275Z,73.44
2022-10-13T17:16:39.815Z,73.51
2022-10-13T17:19:06.865Z,73.84
2022-10-13T17:21:34.026Z,74.56
2022-10-13T17:24:00.763Z,75.74
2022-10-13T17:26:27.306Z,75.63
2022-10-13T17:28:54.055Z,75.51
2022-10-13T17:31:23.067Z,75.93
2022-10-13T17:33:50.244Z,76.71
2022-10-13T17:36:22.964Z,78.35
2022-10-13T17:38:50.704Z,78.89
2022-10-13T17:41:18.358Z,78.25
2022-10-13T17:43:45.370Z,78.75
2022-10-13T17:49:01.488Z,81.86
2022-10-13T17:51:28.130Z,82.64
2022-10-13T17:53:54.976Z,82.62
2022-10-13T17:56:23.821Z,82.25
2022-10-13T17:58:51.537Z,81.94
2022-10-13T18:01:20.958Z,82.46
2022-10-13T18:03:50.328Z,81.71
2022-10-13T18:06:17.453Z,83.36
2022-10-13T18:08:44.276Z,82.97
2022-10-13T18:11:13.552Z,84.04
2022-10-13T18:13:40.705Z,83.60
2022-10-13T18:16:11.489Z,84.23
2022-10-13T18:18:38.410Z,85.00
2022-10-13T18:21:07.335Z,83.88
2022-10-13T18:23:35.872Z,83.84
2022-10-13T18:26:11.778Z,83.76
2022-10-13T18:28:39.858Z,83.99
2022-10-13T18:31:11.607Z,84.20
2022-10-13T18:33:38.926Z,84.56
2022-10-13T18:36:24.115Z,84.56
2022-10-13T18:38:56.604Z,85.50
2022-10-13T18:41:24.457Z,85.18
2022-10-13T18:43:51.353Z,85.02
2022-10-13T18:46:18.456Z,85.02
2022-10-13T18:48:45.108Z,85.38
2022-10-13T18:51:14.219Z,85.91
2022-10-13T18:53:42.786Z,86.59
2022-10-13T18:56:12.980Z,86.27
2022-10-13T18:58:39.472Z,86.28
2022-10-13T19:01:09.483Z,86.62
2022-10-13T19:03:37.853Z,86.55
2022-10-13T19:06:06.945Z,87.22
2022-10-13T19:08:34.205Z,88.29
2022-10-13T19:11:01.052Z,88.78
2022-10-13T19:13:27.851Z,88.43
2022-10-13T19:16:01.527Z,88.46
2022-10-13T19:18:28.761Z,88.38
2022-10-13T19:20:55.717Z,88.25
2022-10-13T19:23:22.263Z,88.52
2022-10-13T19:25:49.221Z,89.56
2022-10-13T19:28:16.707Z,89.02
2022-10-13T19:30:43.653Z,89.10
2022-10-13T19:33:12.116Z,89.10
2022-10-13T19:35:40.592Z,89.24
2022-10-13T19:38:07.235Z,89.32
2022-10-13T19:40:33.880Z,90.03
2022-10-13T19:43:00.323Z,89.86
2022-10-13T19:45:26.876Z,90.76
2022-10-13T19:47:53.307Z,90.71
2022-10-13T19:50:19.833Z,91.22
2022-10-13T19:52:46.382Z,91.34
2022-10-13T19:55:12.784Z,91.36
2022-10-13T19:57:39.255Z,91.27
2022-10-13T20:00:06.613Z,91.50
2022-10-13T20:02:33.155Z,92.76
2022-10-13T20:04:59.695Z,92.70
2022-10-13T20:07:26.440Z,92.87
2022-10-13T20:09:52.879Z,93.53
2022-10-13T20:12:19.297Z,93.29
2022-10-13T20:14:45.960Z,92.72
2022-10-13T20:17:12.479Z,92.61
2022-10-13T20:19:38.948Z,92.49
2022-10-13T20:22:05.480Z,92.77
2022-10-13T20:24:31.922Z,92.71
2022-10-13T20:26:58.349Z,93.27
2022-10-13T20:29:25.103Z,94.68
2022-10-13T20:31:51.519Z,96.18
2022-10-13T20:34:18.080Z,95.26
2022-10-13T20:36:44.513Z,94.78
2022-10-13T20:39:10.954Z,95.33
2022-10-13T20:41:37.386Z,95.43
2022-10-13T20:44:04.133Z,95.28
2022-10-13T20:46:30.775Z,95.25
2022-10-13T20:49:10.539Z,95.15
2022-10-13T20:51:39.528Z,95.16
2022-10-13T20:54:06.068Z,95.63
2022-10-13T20:56:33.494Z,95.83
2022-10-13T20:59:04.805Z,95.60
2022-10-13T21:01:31.833Z,95.83
2022-10-13T21:03:58.539Z,95.84
2022-10-13T21:06:25.714Z,96.08
2022-10-13T21:08:53.100Z,95.89
2022-10-13T21:11:21.274Z,95.91
2022-10-13T21:13:49.209Z,96.22
2022-10-13T21:16:18.131Z,95.86
2022-10-13T21:18:46.535Z,97.85
2022-10-13T21:21:13.013Z,100.00
2022-10-13T21:23:39.512Z,100.00
2022-10-13T21:26:08.358Z,99.23
2022-10-13T21:28:37.382Z,98.16
2022-10-13T21:31:06.526Z,97.72
2022-10-13T21:33:35.737Z,97.86
2022-10-13T21:36:09.438Z,98.28
2022-10-13T21:38:36.570Z,97.91
2022-10-13T21:41:07.833Z,98.00
2022-10-13T21:43:34.581Z,98.13
2022-10-13T21:46:21.912Z,98.04
2022-10-13T21:49:06.327Z,98.33
2022-10-13T21:51:35.570Z,98.45
2022-10-13T21:54:05.188Z,99.01
2022-10-13T21:56:33.147Z,99.05
2022-10-13T21:58:59.632Z,98.91
2022-10-13T22:01:26.656Z,99.64
2022-10-13T22:03:56.004Z,99.68
2022-10-13T22:06:23.233Z,99.60
2022-10-13T22:08:51.399Z,99.45
2022-10-13T22:11:18.669Z,99.62
2022-10-13T22:13:45.812Z,99.40
2022-10-13T22:16:16.148Z,98.90
2022-10-13T22:18:43.372Z,99.44
2022-10-13T22:21:13.744Z,99.93
2022-10-13T22:23:40.783Z,100.00
2022-10-13T22:26:08.243Z,99.98
2022-10-13T22:28:37.460Z,99.99
2022-10-13T22:31:11.821Z,100.00
2022-10-13T22:33:40.389Z,100.00
2022-10-13T22:36:16.803Z,100.00
2022-10-13T22:38:45.234Z,100.00
2022-10-13T22:41:12.062Z,100.00
2022-10-13T22:43:38.569Z,100.00
2022-10-13T22:46:05.346Z,100.00
2022-10-13T22:48:35.831Z,100.00
2022-10-13T22:51:05.905Z,100.00
2022-10-13T22:53:33.674Z,100.00
2022-10-13T22:56:00.908Z,100.00
2022-10-13T22:58:27.378Z,100.00
2022-10-13T23:00:53.822Z,100.00
2022-10-13T23:03:20.588Z,100.00
2022-10-13T23:05:48.526Z,100.00
2022-10-13T23:08:15.090Z,100.00
2022-10-13T23:10:41.681Z,100.00
2022-10-13T23:13:08.290Z,100.00
2022-10-13T23:15:37.972Z,100.00
2022-10-13T23:18:04.580Z,100.00
2022-10-13T23:20:31.015Z,100.00
2022-10-13T23:22:57.494Z,100.00
2022-10-13T23:25:23.930Z,100.00
2022-10-13T23:27:50.401Z,100.00
2022-10-13T23:30:17.012Z,100.00
2022-10-13T23:32:43.552Z,100.00
2022-10-13T23:35:10.204Z,100.00
2022-10-13T23:37:36.676Z,100.00
2022-10-13T23:40:03.387Z,100.00
2022-10-13T23:42:29.863Z,100.00
2022-10-13T23:44:56.356Z,100.00
2022-10-13T23:47:23.261Z,100.00
2022-10-13T23:49:50.122Z,100.00
2022-10-13T23:52:18.886Z,100.00
2022-10-13T23:54:45.365Z,100.00
2022-10-13T23:57:11.842Z,100.00
2022-10-13T23:59:38.359Z,100.00
